Авиационная погода в аэропорту Алыкель

Регион: 
Погода METAR: 
UOOO 222100Z 21012MPS 0450 0350NE R19/0900U SN BLSN OVC007 M11/M12 Q1017 R19/451033 NOSIG RMK QFE747/0996
Время наблюдения
2022-01-22T21:00:00Z
Температура C
-11.0
Точка росы
-12.0
Направление ветра
210
Скорость ветра (узлы)
23
Метео видимость
0.28
Облачность
OVC
Нижняя граница облачности (футы)
700
Явления погоды
BLSN SN
Условия полета
LIFR
Аэропорт подробнее: 
OVC – сплошная облачность;
BLSN – метель низовая или общая;